sensor_id;sensor_type;location;lat;lon;timestamp;P1;durP1;ratioP1;P2;durP2;ratioP2
51594;SDS011;37677;53.254;6.594;2024-01-06T06:10:35;21.92;;;19.33;;
51594;SDS011;37677;53.254;6.594;2024-01-06T06:13:30;21.75;;;19.45;;
51594;SDS011;37677;53.254;6.594;2024-01-06T06:18:26;19.88;;;17.00;;
51594;SDS011;37677;53.254;6.594;2024-01-06T06:21:13;17.90;;;16.17;;
51594;SDS011;37677;53.254;6.594;2024-01-06T06:23:41;17.63;;;15.82;;
51594;SDS011;37677;53.254;6.594;2024-01-06T06:26:08;17.42;;;15.35;;
51594;SDS011;37677;53.254;6.594;2024-01-06T06:28:36;17.58;;;15.75;;
51594;SDS011;37677;53.254;6.594;2024-01-06T06:39:17;16.08;;;14.48;;
51594;SDS011;37677;53.254;6.594;2024-01-06T06:41:43;20.92;;;16.00;;
51594;SDS011;37677;53.254;6.594;2024-01-06T06:44:09;16.40;;;14.80;;
51594;SDS011;37677;53.254;6.594;2024-01-06T06:46:36;16.00;;;14.50;;
51594;SDS011;37677;53.254;6.594;2024-01-06T06:49:08;16.13;;;14.52;;
51594;SDS011;37677;53.254;6.594;2024-01-06T06:51:37;18.33;;;15.48;;
51594;SDS011;37677;53.254;6.594;2024-01-06T06:54:29;17.90;;;16.17;;
51594;SDS011;37677;53.254;6.594;2024-01-06T06:57:01;17.58;;;15.77;;
51594;SDS011;37677;53.254;6.594;2024-01-06T06:59:37;17.77;;;15.88;;
51594;SDS011;37677;53.254;6.594;2024-01-06T07:02:10;17.05;;;15.00;;
51594;SDS011;37677;53.254;6.594;2024-01-06T07:04:36;16.83;;;15.20;;
51594;SDS011;37677;53.254;6.594;2024-01-06T07:07:03;17.50;;;15.70;;
51594;SDS011;37677;53.254;6.594;2024-01-06T07:09:29;17.48;;;15.73;;
51594;SDS011;37677;53.254;6.594;2024-01-06T07:12:03;18.17;;;15.88;;
51594;SDS011;37677;53.254;6.594;2024-01-06T07:14:29;18.50;;;16.80;;
51594;SDS011;37677;53.254;6.594;2024-01-06T07:16:55;19.42;;;17.48;;
51594;SDS011;37677;53.254;6.594;2024-01-06T07:19:33;18.15;;;15.55;;
51594;SDS011;37677;53.254;6.594;2024-01-06T07:21:59;17.83;;;16.13;;
51594;SDS011;37677;53.254;6.594;2024-01-06T07:24:43;18.42;;;16.55;;
51594;SDS011;37677;53.254;6.594;2024-01-06T07:27:10;17.73;;;16.02;;
51594;SDS011;37677;53.254;6.594;2024-01-06T07:29:36;17.83;;;16.13;;
51594;SDS011;37677;53.254;6.594;2024-01-06T07:32:04;19.88;;;16.67;;
51594;SDS011;37677;53.254;6.594;2024-01-06T07:34:31;20.15;;;18.05;;
51594;SDS011;37677;53.254;6.594;2024-01-06T07:36:58;18.15;;;16.25;;
51594;SDS011;37677;53.254;6.594;2024-01-06T07:39:28;20.35;;;18.17;;
51594;SDS011;37677;53.254;6.594;2024-01-06T07:41:54;19.42;;;17.33;;
51594;SDS011;37677;53.254;6.594;2024-01-06T15:37:20;20.50;;;18.35;;
51594;SDS011;37677;53.254;6.594;2024-01-06T15:39:46;18.38;;;16.35;;
51594;SDS011;37677;53.254;6.594;2024-01-06T15:42:16;19.13;;;17.13;;
51594;SDS011;37677;53.254;6.594;2024-01-06T15:44:42;19.70;;;16.92;;
51594;SDS011;37677;53.254;6.594;2024-01-06T15:47:10;20.27;;;15.55;;
51594;SDS011;37677;53.254;6.594;2024-01-06T15:49:39;16.92;;;14.60;;
51594;SDS011;37677;53.254;6.594;2024-01-06T15:52:13;17.88;;;14.40;;
51594;SDS011;37677;53.254;6.594;2024-01-06T15:54:43;15.55;;;13.85;;
51594;SDS011;37677;53.254;6.594;2024-01-06T15:57:11;15.43;;;13.57;;
51594;SDS011;37677;53.254;6.594;2024-01-06T15:59:37;14.45;;;12.75;;
51594;SDS011;37677;53.254;6.594;2024-01-06T16:02:12;14.75;;;12.80;;
51594;SDS011;37677;53.254;6.594;2024-01-06T16:04:40;12.33;;;11.03;;
51594;SDS011;37677;53.254;6.594;2024-01-06T16:07:06;12.68;;;11.32;;
51594;SDS011;37677;53.254;6.594;2024-01-06T16:09:40;12.35;;;11.05;;
51594;SDS011;37677;53.254;6.594;2024-01-06T16:12:07;13.80;;;11.70;;
51594;SDS011;37677;53.254;6.594;2024-01-06T16:14:39;16.20;;;12.68;;
51594;SDS011;37677;53.254;6.594;2024-01-06T16:17:07;13.85;;;11.40;;
51594;SDS011;37677;53.254;6.594;2024-01-06T16:19:33;14.50;;;11.63;;
51594;SDS011;37677;53.254;6.594;2024-01-06T16:21:59;13.85;;;11.13;;
51594;SDS011;37677;53.254;6.594;2024-01-06T16:24:25;13.85;;;11.77;;
51594;SDS011;37677;53.254;6.594;2024-01-06T16:26:56;12.88;;;10.68;;
51594;SDS011;37677;53.254;6.594;2024-01-06T16:29:23;12.75;;;11.45;;
51594;SDS011;37677;53.254;6.594;2024-01-06T16:31:51;12.07;;;10.57;;
51594;SDS011;37677;53.254;6.594;2024-01-06T16:34:17;12.60;;;10.88;;
51594;SDS011;37677;53.254;6.594;2024-01-06T16:36:45;13.98;;;11.00;;
51594;SDS011;37677;53.254;6.594;2024-01-06T16:39:12;11.68;;;10.20;;
51594;SDS011;37677;53.254;6.594;2024-01-06T16:41:42;12.52;;;9.90;;
51594;SDS011;37677;53.254;6.594;2024-01-06T16:44:25;12.55;;;10.02;;
51594;SDS011;37677;53.254;6.594;2024-01-06T16:46:51;11.70;;;10.50;;
51594;SDS011;37677;53.254;6.594;2024-01-06T16:49:17;11.90;;;10.18;;
51594;SDS011;37677;53.254;6.594;2024-01-06T16:51:43;11.52;;;9.75;;
51594;SDS011;37677;53.254;6.594;2024-01-06T16:54:09;12.18;;;10.93;;
51594;SDS011;37677;53.254;6.594;2024-01-06T16:56:36;12.40;;;10.05;;
51594;SDS011;37677;53.254;6.594;2024-01-06T16:59:02;12.77;;;10.82;;
51594;SDS011;37677;53.254;6.594;2024-01-06T17:01:28;11.68;;;9.65;;
51594;SDS011;37677;53.254;6.594;2024-01-06T17:03:55;11.35;;;10.20;;
51594;SDS011;37677;53.254;6.594;2024-01-06T17:06:22;11.82;;;10.60;;
51594;SDS011;37677;53.254;6.594;2024-01-06T17:08:49;13.00;;;10.15;;
51594;SDS011;37677;53.254;6.594;2024-01-06T17:11:15;11.55;;;9.38;;
51594;SDS011;37677;53.254;6.594;2024-01-06T17:13:41;12.70;;;10.10;;
51594;SDS011;37677;53.254;6.594;2024-01-06T17:16:08;12.15;;;10.20;;
51594;SDS011;37677;53.254;6.594;2024-01-06T17:18:34;10.50;;;9.38;;
51594;SDS011;37677;53.254;6.594;2024-01-06T17:23:29;12.82;;;10.85;;
51594;SDS011;37677;53.254;6.594;2024-01-06T17:25:55;12.68;;;11.18;;
51594;SDS011;37677;53.254;6.594;2024-01-06T17:28:21;11.70;;;9.75;;
51594;SDS011;37677;53.254;6.594;2024-01-06T17:30:47;11.73;;;9.98;;
51594;SDS011;37677;53.254;6.594;2024-01-06T17:33:13;11.63;;;9.93;;
51594;SDS011;37677;53.254;6.594;2024-01-06T17:35:39;10.88;;;9.48;;
51594;SDS011;37677;53.254;6.594;2024-01-06T17:38:06;10.50;;;9.05;;
51594;SDS011;37677;53.254;6.594;2024-01-06T17:40:35;10.45;;;9.13;;
51594;SDS011;37677;53.254;6.594;2024-01-06T17:43:02;12.02;;;9.80;;
51594;SDS011;37677;53.254;6.594;2024-01-06T17:45:29;10.20;;;9.07;;
51594;SDS011;37677;53.254;6.594;2024-01-06T17:47:57;12.30;;;10.13;;
51594;SDS011;37677;53.254;6.594;2024-01-06T17:50:23;12.02;;;9.25;;
51594;SDS011;37677;53.254;6.594;2024-01-06T17:52:49;10.68;;;9.40;;
51594;SDS011;37677;53.254;6.594;2024-01-06T17:55:15;10.32;;;9.20;;
51594;SDS011;37677;53.254;6.594;2024-01-06T17:57:42;10.75;;;9.30;;
51594;SDS011;37677;53.254;6.594;2024-01-06T18:00:08;10.43;;;9.32;;
51594;SDS011;37677;53.254;6.594;2024-01-06T18:02:37;10.70;;;9.63;;
51594;SDS011;37677;53.254;6.594;2024-01-06T18:05:04;11.38;;;9.07;;
51594;SDS011;37677;53.254;6.594;2024-01-06T18:07:34;9.88;;;8.88;;
51594;SDS011;37677;53.254;6.594;2024-01-06T18:10:00;10.25;;;9.15;;
51594;SDS011;37677;53.254;6.594;2024-01-06T18:12:26;9.70;;;8.65;;
51594;SDS011;37677;53.254;6.594;2024-01-06T18:14:52;9.48;;;8.25;;
51594;SDS011;37677;53.254;6.594;2024-01-06T18:17:18;12.85;;;8.88;;
51594;SDS011;37677;53.254;6.594;2024-01-06T18:19:44;9.68;;;8.68;;
51594;SDS011;37677;53.254;6.594;2024-01-06T18:22:10;10.27;;;9.07;;
51594;SDS011;37677;53.254;6.594;2024-01-06T18:24:37;8.85;;;7.95;;
51594;SDS011;37677;53.254;6.594;2024-01-06T18:27:03;10.75;;;8.85;;
51594;SDS011;37677;53.254;6.594;2024-01-06T18:29:30;9.95;;;8.45;;
51594;SDS011;37677;53.254;6.594;2024-01-06T18:31:59;9.63;;;8.45;;
51594;SDS011;37677;53.254;6.594;2024-01-06T18:34:27;10.43;;;8.90;;
51594;SDS011;37677;53.254;6.594;2024-01-06T18:36:59;8.80;;;7.95;;
51594;SDS011;37677;53.254;6.594;2024-01-06T18:39:25;9.80;;;8.10;;
51594;SDS011;37677;53.254;6.594;2024-01-06T18:41:54;12.10;;;8.68;;
51594;SDS011;37677;53.254;6.594;2024-01-06T18:44:20;10.10;;;9.05;;
51594;SDS011;37677;53.254;6.594;2024-01-06T18:46:46;11.80;;;9.90;;
51594;SDS011;37677;53.254;6.594;2024-01-06T18:49:12;11.32;;;9.20;;
51594;SDS011;37677;53.254;6.594;2024-01-06T18:51:50;10.57;;;9.23;;
51594;SDS011;37677;53.254;6.594;2024-01-06T18:54:16;11.02;;;9.85;;
51594;SDS011;37677;53.254;6.594;2024-01-06T18:56:46;10.65;;;8.73;;
51594;SDS011;37677;53.254;6.594;2024-01-06T18:59:12;10.65;;;9.50;;
51594;SDS011;37677;53.254;6.594;2024-01-06T19:01:40;10.02;;;8.90;;
51594;SDS011;37677;53.254;6.594;2024-01-06T19:04:08;10.43;;;9.02;;
51594;SDS011;37677;53.254;6.594;2024-01-06T19:06:35;10.85;;;9.40;;
51594;SDS011;37677;53.254;6.594;2024-01-06T19:09:01;11.10;;;9.40;;
51594;SDS011;37677;53.254;6.594;2024-01-06T19:11:27;12.10;;;10.90;;
51594;SDS011;37677;53.254;6.594;2024-01-06T19:13:53;11.38;;;10.18;;
51594;SDS011;37677;53.254;6.594;2024-01-06T19:16:20;11.75;;;10.55;;
51594;SDS011;37677;53.254;6.594;2024-01-06T19:18:49;12.95;;;11.02;;
51594;SDS011;37677;53.254;6.594;2024-01-06T19:21:24;11.23;;;9.88;;
51594;SDS011;37677;53.254;6.594;2024-01-06T19:23:50;11.32;;;9.80;;
51594;SDS011;37677;53.254;6.594;2024-01-06T19:26:23;16.27;;;11.43;;
51594;SDS011;37677;53.254;6.594;2024-01-06T19:28:50;12.38;;;11.07;;
51594;SDS011;37677;53.254;6.594;2024-01-06T19:31:16;11.70;;;10.50;;
51594;SDS011;37677;53.254;6.594;2024-01-06T19:33:42;12.60;;;11.10;;
51594;SDS011;37677;53.254;6.594;2024-01-06T19:36:09;12.57;;;11.30;;
51594;SDS011;37677;53.254;6.594;2024-01-06T19:38:37;13.23;;;11.15;;
51594;SDS011;37677;53.254;6.594;2024-01-06T19:41:03;13.63;;;10.88;;
51594;SDS011;37677;53.254;6.594;2024-01-06T19:43:30;13.00;;;11.65;;
51594;SDS011;37677;53.254;6.594;2024-01-06T19:45:56;12.18;;;10.98;;
51594;SDS011;37677;53.254;6.594;2024-01-06T19:48:22;13.63;;;11.98;;
51594;SDS011;37677;53.254;6.594;2024-01-06T19:50:48;16.08;;;12.70;;
51594;SDS011;37677;53.254;6.594;2024-01-06T19:53:16;14.05;;;11.73;;
51594;SDS011;37677;53.254;6.594;2024-01-06T19:55:43;15.52;;;12.57;;
51594;SDS011;37677;53.254;6.594;2024-01-06T19:58:14;17.63;;;12.43;;
51594;SDS011;37677;53.254;6.594;2024-01-06T20:00:41;14.07;;;12.27;;
51594;SDS011;37677;53.254;6.594;2024-01-06T20:03:08;14.40;;;12.85;;
51594;SDS011;37677;53.254;6.594;2024-01-06T20:05:34;16.90;;;12.52;;
51594;SDS011;37677;53.254;6.594;2024-01-06T20:08:00;16.13;;;14.25;;
51594;SDS011;37677;53.254;6.594;2024-01-06T20:10:26;15.57;;;13.65;;
51594;SDS011;37677;53.254;6.594;2024-01-06T20:12:54;13.65;;;11.55;;
51594;SDS011;37677;53.254;6.594;2024-01-06T20:15:20;13.15;;;11.63;;
51594;SDS011;37677;53.254;6.594;2024-01-06T20:17:55;16.65;;;12.13;;
51594;SDS011;37677;53.254;6.594;2024-01-06T20:20:21;14.32;;;12.55;;
51594;SDS011;37677;53.254;6.594;2024-01-06T20:22:47;14.43;;;12.02;;
51594;SDS011;37677;53.254;6.594;2024-01-06T20:25:13;16.30;;;12.55;;
51594;SDS011;37677;53.254;6.594;2024-01-06T20:27:39;14.93;;;12.75;;
51594;SDS011;37677;53.254;6.594;2024-01-06T20:30:05;17.05;;;13.35;;
51594;SDS011;37677;53.254;6.594;2024-01-06T20:32:32;14.30;;;12.20;;
51594;SDS011;37677;53.254;6.594;2024-01-06T20:34:58;16.35;;;13.75;;
51594;SDS011;37677;53.254;6.594;2024-01-06T20:37:24;14.80;;;12.52;;
51594;SDS011;37677;53.254;6.594;2024-01-06T20:39:51;14.88;;;12.25;;
51594;SDS011;37677;53.254;6.594;2024-01-06T20:42:17;15.35;;;13.73;;
51594;SDS011;37677;53.254;6.594;2024-01-06T20:44:43;16.48;;;13.43;;
51594;SDS011;37677;53.254;6.594;2024-01-06T20:47:09;15.02;;;13.35;;
51594;SDS011;37677;53.254;6.594;2024-01-06T20:49:35;15.32;;;11.95;;
51594;SDS011;37677;53.254;6.594;2024-01-06T20:52:01;15.48;;;13.10;;
51594;SDS011;37677;53.254;6.594;2024-01-06T20:54:32;13.32;;;11.95;;
51594;SDS011;37677;53.254;6.594;2024-01-06T20:56:59;15.32;;;12.82;;
51594;SDS011;37677;53.254;6.594;2024-01-06T20:59:25;16.02;;;13.02;;
51594;SDS011;37677;53.254;6.594;2024-01-06T21:01:54;14.63;;;12.65;;
51594;SDS011;37677;53.254;6.594;2024-01-06T21:04:20;15.80;;;11.65;;
51594;SDS011;37677;53.254;6.594;2024-01-06T21:06:56;13.30;;;11.43;;
51594;SDS011;37677;53.254;6.594;2024-01-06T21:09:35;14.55;;;11.73;;
51594;SDS011;37677;53.254;6.594;2024-01-06T21:12:01;12.88;;;10.77;;
51594;SDS011;37677;53.254;6.594;2024-01-06T21:14:28;13.48;;;11.18;;
51594;SDS011;37677;53.254;6.594;2024-01-06T21:16:54;14.13;;;11.82;;
51594;SDS011;37677;53.254;6.594;2024-01-06T21:19:21;15.20;;;12.15;;
51594;SDS011;37677;53.254;6.594;2024-01-06T21:21:49;14.13;;;11.40;;
51594;SDS011;37677;53.254;6.594;2024-01-06T21:24:17;12.15;;;10.88;;
51594;SDS011;37677;53.254;6.594;2024-01-06T21:26:45;13.07;;;10.70;;
51594;SDS011;37677;53.254;6.594;2024-01-06T21:29:17;12.52;;;9.52;;
51594;SDS011;37677;53.254;6.594;2024-01-06T21:31:43;13.35;;;10.93;;
51594;SDS011;37677;53.254;6.594;2024-01-06T21:34:10;10.55;;;9.40;;
51594;SDS011;37677;53.254;6.594;2024-01-06T21:36:39;10.70;;;9.18;;
51594;SDS011;37677;53.254;6.594;2024-01-06T21:39:07;10.55;;;9.43;;
51594;SDS011;37677;53.254;6.594;2024-01-06T21:41:35;9.52;;;8.50;;
51594;SDS011;37677;53.254;6.594;2024-01-06T21:44:01;9.45;;;8.32;;
51594;SDS011;37677;53.254;6.594;2024-01-06T21:46:31;10.45;;;7.90;;
51594;SDS011;37677;53.254;6.594;2024-01-06T21:49:03;12.50;;;9.32;;
51594;SDS011;37677;53.254;6.594;2024-01-06T21:51:29;11.13;;;8.45;;
51594;SDS011;37677;53.254;6.594;2024-01-06T21:53:57;10.70;;;8.20;;
51594;SDS011;37677;53.254;6.594;2024-01-06T21:56:27;9.88;;;7.95;;
51594;SDS011;37677;53.254;6.594;2024-01-06T21:58:53;9.70;;;8.18;;
51594;SDS011;37677;53.254;6.594;2024-01-06T22:01:19;8.98;;;7.78;;
51594;SDS011;37677;53.254;6.594;2024-01-06T22:03:45;8.38;;;7.40;;
51594;SDS011;37677;53.254;6.594;2024-01-06T22:06:14;9.05;;;7.78;;
51594;SDS011;37677;53.254;6.594;2024-01-06T22:08:40;9.43;;;7.47;;
51594;SDS011;37677;53.254;6.594;2024-01-06T22:11:07;10.60;;;7.85;;
51594;SDS011;37677;53.254;6.594;2024-01-06T22:13:33;11.95;;;8.20;;
51594;SDS011;37677;53.254;6.594;2024-01-06T22:16:00;10.82;;;7.55;;
